Time;durP1;ratioP1;P1;durP2;ratioP2;P2;SDS_P1;SDS_P2;PMS_P1;PMS_P2;Temp;Humidity;BMP_temperature;BMP_pressure;BME280_temperature;BME280_humidity;BME280_pressure;Samples;Min_cycle;Max_cycle;Signal;HPM_P1;HPM_P2
2022/09/11 00:01:31;;;;;;;14.20;10.93;;;18.60;74.50;;;;;;5106901;28;20052;-45
2022/09/11 00:04:01;;;;;;;17.88;11.10;;;18.60;74.60;;;;;;5098957;28;20043;-49
2022/09/11 00:06:30;;;;;;;12.65;10.48;;;18.60;74.70;;;;;;5102070;28;20042;-49
2022/09/11 00:09:00;;;;;;;13.43;10.32;;;18.60;74.70;;;;;;5100003;28;20042;-48
2022/09/11 00:11:40;;;;;;;12.35;10.60;;;18.50;74.70;;;;;;5099488;28;20066;-46
2022/09/11 00:14:12;;;;;;;11.05;9.90;;;18.50;74.70;;;;;;5109801;28;20042;-45
2022/09/11 00:16:43;;;;;;;11.77;10.48;;;18.50;74.60;;;;;;5104882;28;20051;-47
2022/09/11 00:19:16;;;;;;;12.27;10.98;;;18.40;74.50;;;;;;5092774;28;20103;-47
2022/09/11 00:21:44;;;;;;;13.68;11.75;;;18.40;74.70;;;;;;5100817;28;20054;-47
2022/09/11 00:24:12;;;;;;;14.50;12.95;;;18.40;74.70;;;;;;5099734;28;20097;-44
2022/09/11 00:26:39;;;;;;;13.82;12.35;;;18.30;74.90;;;;;;5104844;28;20035;-50
2022/09/11 00:29:09;;;;;;;14.48;11.13;;;18.30;75.10;;;;;;5111078;28;20046;-49
2022/09/11 00:31:36;;;;;;;14.23;11.43;;;18.30;75.20;;;;;;5082819;28;20044;-45
2022/09/11 00:34:05;;;;;;;14.05;11.88;;;18.30;75.40;;;;;;5104975;28;20040;-47
2022/09/11 00:36:34;;;;;;;14.32;12.02;;;18.30;75.40;;;;;;5101639;28;20032;-47
2022/09/11 00:39:01;;;;;;;13.25;11.27;;;18.20;75.50;;;;;;5090647;28;20054;-46
2022/09/11 00:41:33;;;;;;;18.20;12.20;;;18.20;75.60;;;;;;5085576;28;20039;-44
2022/09/11 00:44:06;;;;;;;13.68;10.52;;;18.20;75.60;;;;;;5051111;28;20105;-46
2022/09/11 00:46:46;;;;;;;15.07;12.48;;;18.20;75.70;;;;;;5106375;28;20058;-50
2022/09/11 00:49:30;;;;;;;15.73;12.07;;;18.20;75.80;;;;;;5098038;28;20125;-48
2022/09/11 00:51:59;;;;;;;14.90;12.77;;;18.20;75.90;;;;;;5102317;28;20036;-45
2022/09/11 00:54:30;;;;;;;16.98;13.90;;;18.20;75.60;;;;;;5092297;28;20070;-48
2022/09/11 00:57:04;;;;;;;17.48;13.85;;;18.10;75.70;;;;;;5097880;28;20042;-48
2022/09/11 00:59:32;;;;;;;14.02;12.52;;;18.10;75.70;;;;;;5101290;28;20048;-45
2022/09/11 01:02:03;;;;;;;14.50;12.05;;;18.10;75.60;;;;;;5100900;28;20040;-46
2022/09/11 01:04:37;;;;;;;14.55;13.05;;;18.10;75.60;;;;;;5114838;28;20047;-49
2022/09/11 01:07:11;;;;;;;16.08;12.68;;;18.00;75.70;;;;;;5091210;28;20049;-45
2022/09/11 01:09:39;;;;;;;14.80;13.27;;;18.00;75.70;;;;;;5087529;28;20036;-49
2022/09/11 01:12:15;;;;;;;15.88;13.57;;;18.00;75.80;;;;;;5079027;28;20032;-48
2022/09/11 01:14:59;;;;;;;14.25;12.75;;;18.00;75.90;;;;;;5075669;28;20048;-46
2022/09/11 01:17:32;;;;;;;14.60;12.40;;;18.00;76.00;;;;;;5098950;28;20047;-47
2022/09/11 01:20:14;;;;;;;16.40;12.50;;;18.00;76.00;;;;;;5102169;28;20479;-48
2022/09/11 01:23:13;;;;;;;14.32;12.55;;;18.00;76.30;;;;;;5078762;28;20642;-45
2022/09/11 01:26:19;;;;;;;13.93;11.73;;;18.00;76.20;;;;;;5074559;28;20419;-47
2022/09/11 01:28:56;;;;;;;13.10;11.68;;;18.00;76.10;;;;;;5105293;28;20028;-47
2022/09/11 01:31:27;;;;;;;13.82;11.75;;;18.00;76.00;;;;;;5098393;28;20042;-49
2022/09/11 01:34:13;;;;;;;14.52;12.20;;;18.00;76.00;;;;;;5088573;28;20039;-46
2022/09/11 01:36:46;;;;;;;13.75;12.27;;;18.00;76.40;;;;;;5085035;28;20102;-49
2022/09/11 01:39:17;;;;;;;12.43;11.10;;;18.00;76.50;;;;;;5084805;28;20051;-47
2022/09/11 01:41:52;;;;;;;17.20;12.07;;;18.00;76.60;;;;;;5109192;28;20048;-48
2022/09/11 01:44:30;;;;;;;14.95;12.80;;;18.10;76.80;;;;;;5085257;28;20059;-48
2022/09/11 01:47:02;;;;;;;17.33;14.25;;;18.10;76.90;;;;;;5077294;28;20036;-46
2022/09/11 01:49:47;;;;;;;18.10;14.93;;;18.20;76.90;;;;;;5081722;28;20051;-46
2022/09/11 01:52:19;;;;;;;14.45;11.85;;;18.20;77.00;;;;;;5079037;28;20450;-47
2022/09/11 01:54:58;;;;;;;20.20;16.13;;;18.30;76.80;;;;;;5086924;28;20437;-47
2022/09/11 01:57:40;;;;;;;19.30;14.52;;;18.20;76.60;;;;;;5065225;28;20410;-48
2022/09/11 02:00:12;;;;;;;18.15;15.57;;;18.30;76.80;;;;;;5084744;28;20051;-46
2022/09/11 02:02:52;;;;;;;21.58;15.52;;;18.30;76.50;;;;;;5097578;28;20472;-47
2022/09/11 02:05:28;;;;;;;19.98;13.95;;;18.30;76.50;;;;;;5096677;28;20426;-48
2022/09/11 02:08:10;;;;;;;20.38;16.70;;;18.40;76.40;;;;;;5086497;28;20085;-48
2022/09/11 02:10:48;;;;;;;20.38;14.70;;;18.40;76.40;;;;;;5094260;28;20039;-49
2022/09/11 02:13:33;;;;;;;21.83;16.75;;;18.40;76.20;;;;;;5089901;28;20467;-49
2022/09/11 02:16:15;;;;;;;21.02;17.30;;;18.40;76.30;;;;;;5085425;28;20036;-45
2022/09/11 02:18:50;;;;;;;22.20;16.80;;;18.40;76.30;;;;;;5081147;28;20048;-47
2022/09/11 02:21:17;;;;;;;22.58;16.08;;;18.40;76.20;;;;;;5094840;28;20158;-49
2022/09/11 02:23:46;;;;;;;24.75;17.60;;;18.40;76.20;;;;;;5104279;28;20047;-47
2022/09/11 02:26:18;;;;;;;20.15;16.25;;;18.40;76.40;;;;;;5084531;28;20134;-49
2022/09/11 02:28:45;;;;;;;24.27;18.63;;;18.40;76.40;;;;;;5078740;28;20106;-46
2022/09/11 02:31:17;;;;;;;25.25;18.40;;;18.40;76.50;;;;;;5075644;28;20048;-48
2022/09/11 02:33:47;;;;;;;24.83;19.10;;;18.40;76.60;;;;;;5102190;28;20064;-45
2022/09/11 02:36:30;;;;;;;25.13;17.70;;;18.40;76.50;;;;;;5103264;28;20269;-48
2022/09/11 02:39:16;;;;;;;22.30;18.58;;;18.50;76.60;;;;;;5112299;28;20047;-45
2022/09/11 02:42:11;;;;;;;25.02;18.02;;;18.50;76.50;;;;;;5081411;28;20139;-48
2022/09/11 02:45:12;;;;;;;23.92;16.98;;;18.50;76.70;;;;;;5082288;28;20044;-47
2022/09/11 02:47:48;;;;;;;30.05;16.95;;;18.50;76.70;;;;;;5073994;28;20612;-48
2022/09/11 02:50:47;;;;;;;32.28;18.23;;;18.50;76.50;;;;;;5078740;28;20047;-48
2022/09/11 02:53:26;;;;;;;28.88;17.73;;;18.50;76.60;;;;;;5073988;28;20047;-47
2022/09/11 02:56:03;;;;;;;28.58;17.45;;;18.60;76.30;;;;;;5078061;28;20079;-47
2022/09/11 02:58:55;;;;;;;28.25;18.70;;;18.50;77.00;;;;;;5098462;28;20511;-47
2022/09/11 03:01:26;;;;;;;;;;;18.60;76.50;;;;;;5080491;28;20044;-46
2022/09/11 03:03:53;;;;;;;27.55;17.33;;;18.60;76.50;;;;;;5081713;28;19920;-47
2022/09/11 03:06:21;;;;;;;25.38;17.25;;;18.60;75.90;;;;;;5071243;28;20084;-47
2022/09/11 03:08:48;;;;;;;24.77;18.65;;;18.60;76.00;;;;;;5072302;28;20060;-47
2022/09/11 03:11:18;;;;;;;24.92;17.63;;;18.60;76.00;;;;;;5104804;28;20499;-48
2022/09/11 03:13:49;;;;;;;28.83;19.42;;;18.60;76.10;;;;;;5085520;28;20035;-47
2022/09/11 03:16:16;;;;;;;25.70;18.60;;;18.50;76.10;;;;;;5093106;28;20085;-46
2022/09/11 03:18:52;;;;;;;24.52;17.35;;;18.50;76.20;;;;;;5091730;28;20801;-48
2022/09/11 03:21:19;;;;;;;26.17;18.33;;;18.50;76.30;;;;;;5086093;28;20432;-48
2022/09/11 03:23:48;;;;;;;26.27;18.75;;;18.50;76.20;;;;;;5082371;28;20036;-46
2022/09/11 03:26:19;;;;;;;24.88;18.75;;;18.60;76.40;;;;;;5093232;28;20051;-48
2022/09/11 03:28:46;;;;;;;24.83;17.52;;;18.60;76.30;;;;;;5105069;28;20070;-48
2022/09/11 03:31:14;;;;;;;26.13;18.15;;;18.60;76.30;;;;;;5086687;28;20048;-46
2022/09/11 03:33:41;;;;;;;22.40;17.52;;;18.60;76.30;;;;;;5086065;28;20040;-47
2022/09/11 03:36:19;;;;;;;23.02;17.67;;;18.60;76.40;;;;;;5079305;28;20051;-50
2022/09/11 03:38:51;;;;;;;27.55;18.83;;;18.60;76.30;;;;;;5082638;28;20046;-51
2022/09/11 03:41:30;;;;;;;26.60;18.77;;;18.60;76.30;;;;;;5078316;28;20135;-47
2022/09/11 03:43:57;;;;;;;24.50;18.85;;;18.60;76.30;;;;;;5082008;28;20123;-46
2022/09/11 03:46:28;;;;;;;28.98;20.30;;;18.70;76.20;;;;;;5090747;28;20043;-45
2022/09/11 03:48:56;;;;;;;25.95;18.33;;;18.60;76.20;;;;;;5082708;28;20102;-50
2022/09/11 03:51:25;;;;;;;23.05;18.27;;;18.60;76.10;;;;;;5080197;28;20450;-46
2022/09/11 03:53:52;;;;;;;72.57;21.20;;;18.60;76.20;;;;;;5079267;28;20055;-47
2022/09/11 03:56:20;;;;;;;70.40;20.90;;;18.60;76.20;;;;;;5064126;28;20487;-49
2022/09/11 03:58:49;;;;;;;46.63;18.95;;;18.60;76.20;;;;;;5069362;28;20109;-49
2022/09/11 04:01:18;;;;;;;34.95;19.35;;;18.60;76.10;;;;;;5101818;28;20109;-48
2022/09/11 04:03:45;;;;;;;62.33;20.05;;;18.60;76.30;;;;;;5093187;28;20043;-46
2022/09/11 04:06:20;;;;;;;70.05;20.13;;;18.60;76.30;;;;;;5085681;28;20048;-47
2022/09/11 04:08:49;;;;;;;49.17;18.55;;;18.60;76.40;;;;;;5081559;28;20105;-46
2022/09/11 04:11:24;;;;;;;28.40;17.55;;;18.60;76.30;;;;;;5076464;28;20169;-50
2022/09/11 04:13:53;;;;;;;41.47;19.75;;;18.60;76.40;;;;;;5090008;28;20082;-50
2022/09/11 04:16:24;;;;;;;34.22;18.20;;;18.60;76.40;;;;;;5081324;28;20048;-45
2022/09/11 04:18:56;;;;;;;44.53;18.97;;;18.50;76.40;;;;;;5080917;28;20043;-47
2022/09/11 04:21:24;;;;;;;59.50;18.23;;;18.60;76.60;;;;;;5090838;28;20327;-48
2022/09/11 04:23:58;;;;;;;51.15;18.15;;;18.60;76.50;;;;;;5078146;28;20032;-50
2022/09/11 04:26:30;;;;;;;48.40;19.25;;;18.60;76.60;;;;;;5095133;28;20032;-47
2022/09/11 04:29:13;;;;;;;72.03;17.83;;;18.50;76.60;;;;;;5084036;28;20048;-48
2022/09/11 04:31:42;;;;;;;97.97;21.85;;;18.60;76.50;;;;;;5091313;28;20048;-46
2022/09/11 04:34:11;;;;;;;73.75;19.15;;;18.50;76.60;;;;;;5090271;28;20058;-45
2022/09/11 04:36:38;;;;;;;86.57;20.40;;;18.50;76.50;;;;;;5105580;28;20036;-44
2022/09/11 04:39:18;;;;;;;101.55;21.40;;;18.50;76.50;;;;;;5096842;28;20048;-50
2022/09/11 04:41:47;;;;;;;102.80;21.75;;;18.60;76.40;;;;;;5084137;28;20093;-50
2022/09/11 04:44:19;;;;;;;113.85;22.15;;;18.50;76.20;;;;;;5088266;28;20047;-48
2022/09/11 04:46:49;;;;;;;43.42;18.05;;;18.50;76.30;;;;;;5085619;28;20074;-47
2022/09/11 04:49:17;;;;;;;58.92;18.52;;;18.40;76.30;;;;;;5075616;28;20098;-47
2022/09/11 04:51:45;;;;;;;73.68;19.75;;;18.40;76.60;;;;;;5075064;28;20460;-46
2022/09/11 04:54:16;;;;;;;66.85;17.88;;;18.40;76.60;;;;;;5072476;28;21372;-48
2022/09/11 04:56:45;;;;;;;70.40;22.30;;;18.40;77.30;;;;;;5075178;28;20745;-44
2022/09/11 04:59:14;;;;;;;46.70;19.85;;;18.40;76.80;;;;;;5061133;28;20140;-47
2022/09/11 05:01:46;;;;;;;75.05;19.40;;;18.40;77.00;;;;;;5073055;28;20500;-45
2022/09/11 05:04:15;;;;;;;84.68;20.42;;;18.40;76.90;;;;;;5084772;28;20047;-46
2022/09/11 05:06:47;;;;;;;60.15;18.52;;;18.40;76.90;;;;;;5080670;28;20042;-48
2022/09/11 05:09:16;;;;;;;50.88;17.75;;;18.40;76.90;;;;;;5096876;28;20039;-45
2022/09/11 05:11:45;;;;;;;109.75;18.95;;;18.40;77.00;;;;;;5101123;28;20040;-47
2022/09/11 05:14:14;;;;;;;62.13;18.55;;;18.40;76.90;;;;;;5104599;28;20130;-49
2022/09/11 05:16:43;;;;;;;97.95;19.55;;;18.40;76.90;;;;;;5095984;28;20104;-45
2022/09/11 05:19:11;;;;;;;64.85;16.45;;;18.40;77.00;;;;;;5092183;28;20040;-47
2022/09/11 05:21:38;;;;;;;50.25;19.35;;;18.30;77.00;;;;;;5081463;28;20055;-51
2022/09/11 05:24:05;;;;;;;74.45;18.98;;;18.40;77.20;;;;;;5075795;28;20158;-47
2022/09/11 05:26:35;;;;;;;76.18;16.83;;;18.30;77.20;;;;;;5076615;28;20101;-45
2022/09/11 05:29:07;;;;;;;129.23;20.40;;;18.40;77.10;;;;;;5071205;28;20517;-47
2022/09/11 05:31:40;;;;;;;78.72;18.20;;;18.40;77.10;;;;;;5074701;28;20031;-48
2022/09/11 05:34:08;;;;;;;98.65;19.55;;;18.40;77.10;;;;;;5077949;28;20052;-47
2022/09/11 05:36:35;;;;;;;80.53;19.83;;;18.30;77.10;;;;;;5089113;28;20039;-46
2022/09/11 05:39:03;;;;;;;92.20;23.10;;;18.30;77.20;;;;;;5105632;28;20055;-47
2022/09/11 05:41:31;;;;;;;57.38;18.90;;;18.40;77.40;;;;;;5087027;28;20062;-47
2022/09/11 05:43:58;;;;;;;61.10;19.85;;;18.30;77.60;;;;;;5086292;28;20044;-46
2022/09/11 05:46:25;;;;;;;40.10;18.50;;;18.30;77.70;;;;;;5074210;28;20091;-47
2022/09/11 05:48:56;;;;;;;105.50;18.77;;;18.40;78.00;;;;;;5076448;28;20626;-48
2022/09/11 05:51:23;;;;;;;111.68;20.08;;;18.40;77.80;;;;;;5089066;28;20458;-53
2022/09/11 05:53:54;;;;;;;85.72;17.67;;;18.40;77.60;;;;;;5096469;28;20407;-54
2022/09/11 05:56:23;;;;;;;89.05;19.73;;;18.40;77.40;;;;;;5073386;28;20102;-52
2022/09/11 05:58:54;;;;;;;85.10;17.33;;;18.40;77.40;;;;;;5078836;28;20037;-54
2022/09/11 06:01:27;;;;;;;58.28;16.65;;;18.40;77.30;;;;;;5083935;28;20089;-53
2022/09/11 06:04:08;;;;;;;30.17;14.73;;;18.40;77.40;;;;;;5064450;28;20129;-52
2022/09/11 06:06:35;;;;;;;63.22;16.67;;;18.40;77.70;;;;;;5069480;28;20110;-50
2022/09/11 06:09:03;;;;;;;57.97;17.50;;;18.40;77.60;;;;;;5081397;28;20438;-54
2022/09/11 06:11:31;;;;;;;88.00;17.92;;;18.50;77.70;;;;;;5086899;28;20063;-53
2022/09/11 06:13:58;;;;;;;76.03;16.30;;;18.50;77.60;;;;;;5111985;28;20407;-53
2022/09/11 06:16:25;;;;;;;60.97;15.75;;;18.50;77.60;;;;;;5083763;28;20094;-49
2022/09/11 06:18:57;;;;;;;;;;;18.50;77.50;;;;;;5058057;28;20126;-54
2022/09/11 06:21:26;;;;;;;53.47;14.88;;;18.50;77.80;;;;;;5102169;28;20368;-53
2022/09/11 06:24:23;;;;;;;54.85;16.10;;;18.50;77.00;;;;;;5076466;28;20055;-51
2022/09/11 06:26:50;;;;;;;50.47;15.63;;;18.50;77.00;;;;;;5077612;28;20531;-54
2022/09/11 06:29:18;;;;;;;39.33;14.60;;;18.50;77.00;;;;;;5083044;28;20111;-49
2022/09/11 06:31:50;;;;;;;42.97;14.40;;;18.50;77.00;;;;;;5079759;28;20036;-52
2022/09/11 06:34:19;;;;;;;52.78;16.45;;;18.50;77.00;;;;;;5077102;28;20737;-53
2022/09/11 06:36:47;;;;;;;48.28;15.73;;;18.50;77.10;;;;;;5071650;28;20463;-54
2022/09/11 06:39:21;;;;;;;48.07;16.67;;;18.50;77.20;;;;;;5070653;28;20466;-51
2022/09/11 06:41:49;;;;;;;53.05;16.15;;;18.50;77.30;;;;;;5063686;28;20560;-54
2022/09/11 06:44:17;;;;;;;72.20;17.08;;;18.50;77.90;;;;;;5065133;28;20041;-49
2022/09/11 06:46:44;;;;;;;49.72;17.77;;;18.50;77.20;;;;;;5063564;28;20036;-54
2022/09/11 06:49:13;;;;;;;40.40;16.35;;;18.50;77.20;;;;;;5071418;28;20044;-51
2022/09/11 06:52:02;;;;;;;54.72;16.80;;;18.50;77.50;;;;;;5061031;28;20078;-54
2022/09/11 06:54:30;;;;;;;47.97;17.95;;;18.60;77.50;;;;;;5075549;28;20039;-54
2022/09/11 06:56:58;;;;;;;76.25;20.52;;;18.60;77.40;;;;;;5065036;28;20071;-50
2022/09/11 06:59:25;;;;;;;37.97;17.80;;;18.60;77.50;;;;;;5092522;28;20047;-52
2022/09/11 07:01:52;;;;;;;37.58;17.88;;;18.60;77.60;;;;;;5087499;28;20138;-53
2022/09/11 07:04:22;;;;;;;53.50;20.52;;;18.60;77.90;;;;;;5077718;28;20046;-51
2022/09/11 07:06:49;;;;;;;62.40;23.10;;;18.70;78.00;;;;;;5081515;28;20044;-53
2022/09/11 07:09:16;;;;;;;43.50;22.38;;;18.70;78.00;;;;;;5082371;28;20032;-54
2022/09/11 07:11:49;;;;;;;66.85;23.67;;;18.70;77.90;;;;;;5083098;28;20048;-53
2022/09/11 07:14:20;;;;;;;42.83;20.73;;;18.80;77.60;;;;;;5088253;28;20488;-50
2022/09/11 07:16:51;;;;;;;55.83;22.67;;;18.80;77.40;;;;;;5077258;28;20050;-50
2022/09/11 07:19:18;;;;;;;59.67;20.13;;;18.80;77.30;;;;;;5068971;28;20127;-51
2022/09/11 07:21:45;;;;;;;57.45;19.15;;;18.80;77.10;;;;;;5063803;28;20041;-52
2022/09/11 07:24:11;;;;;;;38.83;17.88;;;18.80;77.10;;;;;;5067480;28;20051;-50
2022/09/11 07:26:41;;;;;;;43.35;19.55;;;18.80;77.20;;;;;;5071695;28;20037;-50
2022/09/11 07:29:14;;;;;;;36.83;16.50;;;18.80;77.10;;;;;;5090919;28;20059;-50
2022/09/11 07:31:42;;;;;;;61.30;18.27;;;18.80;77.00;;;;;;5065988;28;20505;-53
2022/09/11 07:34:10;;;;;;;42.97;18.23;;;18.90;76.80;;;;;;5073434;28;20565;-54
2022/09/11 07:36:37;;;;;;;34.58;17.17;;;18.80;76.70;;;;;;5069862;28;20131;-50
2022/09/11 07:39:07;;;;;;;64.22;20.77;;;18.80;76.80;;;;;;5068879;28;20035;-52
2022/09/11 07:41:46;;;;;;;24.85;15.18;;;18.90;76.80;;;;;;5074983;28;20450;-52
2022/09/11 07:44:19;;;;;;;53.10;15.98;;;18.80;77.00;;;;;;5066111;28;20040;-51
2022/09/11 07:46:46;;;;;;;47.17;19.00;;;18.90;76.90;;;;;;5067154;28;20036;-52
2022/09/11 07:49:14;;;;;;;34.67;17.17;;;18.90;77.00;;;;;;5064659;28;20051;-50
2022/09/11 07:51:42;;;;;;;39.20;17.60;;;18.90;77.30;;;;;;5071221;28;20047;-50
2022/09/11 07:54:11;;;;;;;28.42;16.30;;;18.90;77.30;;;;;;5074521;28;20044;-52
2022/09/11 07:56:40;;;;;;;35.95;18.95;;;18.90;77.30;;;;;;5095815;28;20042;-49
2022/09/11 07:59:12;;;;;;;40.92;20.27;;;19.00;77.30;;;;;;5090680;28;20089;-51
2022/09/11 08:01:42;;;;;;;50.72;20.52;;;19.00;77.10;;;;;;5064775;28;20039;-53
2022/09/11 08:04:12;;;;;;;38.80;19.65;;;19.00;76.80;;;;;;5081960;28;20051;-53
2022/09/11 08:06:40;;;;;;;28.77;18.45;;;19.00;76.90;;;;;;5074971;28;20059;-49
2022/09/11 08:09:14;;;;;;;31.17;18.55;;;19.00;77.00;;;;;;5087186;28;20474;-50
2022/09/11 08:11:47;;;;;;;31.20;18.83;;;19.10;76.80;;;;;;5086207;28;20028;-51
2022/09/11 08:14:16;;;;;;;23.80;16.08;;;19.10;76.90;;;;;;5076062;28;20811;-51
2022/09/11 08:16:45;;;;;;;31.25;17.60;;;19.20;77.20;;;;;;5070942;28;20550;-52
2022/09/11 08:19:21;;;;;;;28.48;18.02;;;19.20;77.30;;;;;;5091322;28;20043;-53
2022/09/11 08:21:57;;;;;;;24.33;17.10;;;19.30;76.90;;;;;;5079233;28;20066;-50
2022/09/11 08:24:26;;;;;;;23.95;16.13;;;19.30;76.80;;;;;;5071057;28;20044;-52
2022/09/11 08:26:56;;;;;;;24.02;16.38;;;19.30;77.00;;;;;;5076670;28;20060;-51
2022/09/11 08:29:25;;;;;;;26.17;18.67;;;19.40;76.90;;;;;;5083544;28;20067;-51
2022/09/11 08:31:52;;;;;;;31.00;19.58;;;19.40;76.90;;;;;;5080820;28;20040;-51
2022/09/11 08:34:21;;;;;;;28.27;18.23;;;19.50;76.90;;;;;;5076354;28;20570;-52
2022/09/11 08:36:49;;;;;;;30.33;19.23;;;19.60;77.10;;;;;;5079484;28;20082;-51
2022/09/11 08:39:16;;;;;;;31.33;20.88;;;19.60;76.80;;;;;;5090326;28;20054;-53
2022/09/11 08:41:52;;;;;;;33.95;19.90;;;19.70;76.50;;;;;;5084751;28;20095;-54
2022/09/11 08:44:31;;;;;;;33.88;21.45;;;19.80;76.10;;;;;;5077175;28;20063;-51
2022/09/11 08:47:21;;;;;;;34.33;21.40;;;19.90;75.80;;;;;;5087316;28;20102;-53
2022/09/11 08:50:26;;;;;;;30.88;19.95;;;19.90;75.50;;;;;;5081177;28;20068;-51
2022/09/11 08:52:55;;;;;;;27.90;18.15;;;20.00;75.30;;;;;;5085643;28;20052;-52
2022/09/11 08:55:38;;;;;;;32.45;21.58;;;20.10;75.20;;;;;;5091275;28;20043;-54
2022/09/11 08:58:28;;;;;;;31.45;19.55;;;20.10;75.50;;;;;;5087329;28;20074;-54
2022/09/11 09:00:55;;;;;;;28.90;18.00;;;20.20;74.50;;;;;;5083466;28;20067;-54
2022/09/11 09:03:29;;;;;;;26.60;19.00;;;20.20;74.60;;;;;;5071871;28;20044;-54
2022/09/11 09:06:20;;;;;;;24.52;16.92;;;20.20;74.40;;;;;;5077167;28;20040;-52
2022/09/11 09:09:03;;;;;;;20.17;16.35;;;20.20;74.20;;;;;;5076193;28;20492;-52
2022/09/11 09:12:01;;;;;;;23.77;15.93;;;20.30;74.40;;;;;;5077054;28;20039;-54
2022/09/11 09:14:50;;;;;;;21.88;16.13;;;20.30;74.00;;;;;;5089565;28;20415;-54
2022/09/11 09:17:28;;;;;;;23.38;15.60;;;20.30;73.90;;;;;;5075177;28;20500;-54
2022/09/11 09:20:00;;;;;;;21.60;15.98;;;20.30;73.90;;;;;;5082364;28;20418;-52
2022/09/11 09:22:48;;;;;;;21.80;15.95;;;20.30;74.10;;;;;;5086391;28;20048;-51
2022/09/11 09:25:21;;;;;;;22.67;16.55;;;20.30;74.30;;;;;;5086616;28;20043;-53
2022/09/11 09:28:08;;;;;;;23.92;17.38;;;20.30;74.30;;;;;;5087175;28;20106;-52
2022/09/11 09:30:50;;;;;;;23.08;16.85;;;20.40;74.10;;;;;;5071994;28;20044;-53
2022/09/11 09:33:27;;;;;;;25.63;18.33;;;20.40;74.20;;;;;;5079407;28;20036;-54
2022/09/11 09:35:55;;;;;;;20.52;16.40;;;20.50;74.00;;;;;;5085155;28;20035;-52
2022/09/11 09:38:28;;;;;;;24.83;17.27;;;20.60;74.00;;;;;;5075870;28;20050;-54
2022/09/11 09:41:21;;;;;;;21.48;15.82;;;20.70;73.30;;;;;;5092571;28;20158;-52
2022/09/11 09:44:03;;;;;;;20.58;16.02;;;20.80;72.90;;;;;;5072380;28;20064;-54
2022/09/11 09:46:41;;;;;;;20.40;16.53;;;20.90;72.80;;;;;;5098986;28;20040;-51
2022/09/11 09:49:16;;;;;;;21.52;15.35;;;21.00;72.70;;;;;;5111464;28;20043;-54
2022/09/11 09:51:42;;;;;;;20.48;15.32;;;21.00;71.70;;;;;;5091690;28;20039;-52
2022/09/11 09:54:14;;;;;;;21.38;16.38;;;21.10;72.10;;;;;;5094948;28;20040;-52
2022/09/11 09:56:48;;;;;;;21.83;16.13;;;21.20;71.70;;;;;;5082721;28;20036;-51
2022/09/11 09:59:21;;;;;;;21.63;16.92;;;21.30;72.20;;;;;;5108780;28;20123;-50
2022/09/11 10:01:50;;;;;;;21.75;15.88;;;21.40;71.60;;;;;;5101866;28;20044;-54
2022/09/11 10:04:23;;;;;;;20.05;16.23;;;21.50;72.10;;;;;;5096720;28;20040;-52
2022/09/11 10:06:52;;;;;;;20.85;15.55;;;21.60;71.40;;;;;;5090551;28;20668;-54
2022/09/11 10:09:28;;;;;;;19.92;15.00;;;21.70;71.20;;;;;;5063970;28;20036;-52
2022/09/11 10:12:01;;;;;;;18.25;14.45;;;21.80;69.80;;;;;;5098268;28;20039;-52
2022/09/11 10:14:31;;;;;;;16.90;12.80;;;21.90;69.00;;;;;;5090317;28;20027;-51
2022/09/11 10:17:31;;;;;;;16.08;12.73;;;21.90;68.60;;;;;;5092150;28;20093;-51
2022/09/11 10:20:20;;;;;;;16.83;13.57;;;22.00;68.60;;;;;;5094863;28;20066;-51
2022/09/11 10:22:48;;;;;;;13.65;10.75;;;22.00;68.50;;;;;;5089789;28;20040;-53
2022/09/11 10:25:18;;;;;;;14.40;11.82;;;22.00;68.20;;;;;;5091062;28;20510;-50
2022/09/11 10:28:09;;;;;;;13.07;10.40;;;22.10;67.40;;;;;;5081208;28;20044;-52
2022/09/11 10:30:41;;;;;;;11.75;9.82;;;22.10;65.60;;;;;;5088674;28;20495;-51
2022/09/11 10:33:38;;;;;;;15.30;11.90;;;22.20;65.90;;;;;;5092707;28;20535;-52
2022/09/11 10:36:08;;;;;;;15.10;11.88;;;22.30;65.30;;;;;;5079418;28;20028;-51
2022/09/11 10:38:45;;;;;;;13.73;10.90;;;22.30;66.40;;;;;;5082037;28;20153;-54
2022/09/11 10:41:12;;;;;;;14.10;12.50;;;22.30;66.10;;;;;;5096965;28;20703;-53
2022/09/11 10:43:49;;;;;;;14.55;11.50;;;22.30;66.10;;;;;;5088452;28;20122;-51
2022/09/11 10:46:36;;;;;;;14.02;11.75;;;22.40;65.50;;;;;;5073217;28;20044;-54
2022/09/11 10:49:10;;;;;;;15.15;11.85;;;22.40;65.30;;;;;;5093208;28;20047;-54
2022/09/11 10:51:39;;;;;;;12.85;10.88;;;22.50;66.00;;;;;;5089119;28;20036;-53
2022/09/11 10:54:21;;;;;;;15.15;12.35;;;22.60;66.10;;;;;;5085236;28;20101;-51
2022/09/11 10:57:06;;;;;;;18.35;11.90;;;22.60;65.20;;;;;;5082564;28;20129;-54
2022/09/11 11:00:07;;;;;;;13.45;11.90;;;22.70;65.10;;;;;;5094891;28;20039;-54
2022/09/11 11:02:51;;;;;;;12.90;10.05;;;22.70;63.70;;;;;;5082453;28;20052;-54
2022/09/11 11:05:45;;;;;;;13.38;11.48;;;22.80;63.50;;;;;;5079250;28;20112;-53
2022/09/11 11:08:17;;;;;;;13.60;10.40;;;22.80;62.90;;;;;;5083741;28;20035;-53
2022/09/11 11:11:39;;;;;;;14.20;11.57;;;22.90;64.50;;;;;;5090286;28;20526;-50
2022/09/11 11:14:43;;;;;;;11.57;9.80;;;22.90;63.70;;;;;;5039879;28;20060;-51
2022/09/11 11:17:18;;;;;;;11.30;9.98;;;23.00;63.70;;;;;;5085481;28;20465;-54
2022/09/11 11:20:04;;;;;;;13.50;10.77;;;23.10;63.20;;;;;;5092122;28;20042;-52
2022/09/11 11:22:33;;;;;;;11.77;9.43;;;23.30;63.30;;;;;;5077825;28;20032;-53
2022/09/11 11:25:25;;;;;;;9.43;8.30;;;23.40;63.10;;;;;;5070170;28;20049;-53
2022/09/11 11:27:52;;;;;;;;;;;23.50;62.90;;;;;;5091456;28;20051;-55
2022/09/11 11:30:20;;;;;;;8.57;7.18;;;23.70;64.60;;;;;;5096504;28;19924;-54
2022/09/11 11:33:05;;;;;;;8.63;7.57;;;23.80;63.40;;;;;;5105603;28;20059;-54
2022/09/11 11:35:57;;;;;;;7.72;6.60;;;24.00;61.40;;;;;;5093376;28;20114;-53
2022/09/11 11:38:23;;;;;;;9.25;6.20;;;24.10;60.60;;;;;;5072546;28;20046;-52
2022/09/11 11:40:55;;;;;;;7.60;6.80;;;24.20;60.90;;;;;;5101728;28;20039;-55
2022/09/11 11:43:27;;;;;;;8.68;7.05;;;24.40;60.10;;;;;;5108764;28;20059;-54
2022/09/11 11:46:01;;;;;;;6.82;5.60;;;24.50;59.30;;;;;;5099296;28;20844;-54
2022/09/11 11:48:57;;;;;;;6.22;5.38;;;24.70;59.00;;;;;;5091962;28;20082;-55
2022/09/11 11:51:35;;;;;;;9.05;6.97;;;24.80;57.90;;;;;;5096414;28;20040;-52
2022/09/11 11:54:40;;;;;;;11.18;9.50;;;24.90;58.80;;;;;;5091253;28;20072;-52
2022/09/11 11:57:17;;;;;;;9.98;8.88;;;25.00;58.90;;;;;;5089743;28;20056;-55
2022/09/11 12:00:06;;;;;;;11.95;9.00;;;25.10;59.10;;;;;;5088097;28;20044;-55
2022/09/11 12:02:48;;;;;;;10.85;9.60;;;25.20;58.70;;;;;;5069576;28;20051;-54
2022/09/11 12:05:19;;;;;;;11.45;10.15;;;25.30;58.50;;;;;;5098184;28;20502;-54
2022/09/11 12:07:47;;;;;;;11.50;9.48;;;25.40;58.70;;;;;;5093649;28;20423;-53
2022/09/11 12:10:21;;;;;;;11.88;8.55;;;25.40;58.90;;;;;;5092333;28;20052;-51
2022/09/11 12:12:59;;;;;;;9.35;8.38;;;25.50;58.50;;;;;;5090993;28;20083;-55
2022/09/11 12:15:30;;;;;;;11.43;9.98;;;25.50;58.70;;;;;;5089654;28;20074;-54
2022/09/11 12:18:23;;;;;;;9.10;8.20;;;25.60;57.90;;;;;;5090292;28;20046;-55
2022/09/11 12:20:50;;;;;;;8.55;7.68;;;25.60;57.50;;;;;;5069087;28;20424;-55
2022/09/11 12:23:29;;;;;;;10.13;8.10;;;25.60;57.60;;;;;;5091351;28;20048;-55
2022/09/11 12:26:21;;;;;;;8.70;7.80;;;25.60;56.80;;;;;;5099921;28;20115;-54
2022/09/11 12:29:11;;;;;;;7.55;6.85;;;25.60;57.20;;;;;;5072072;28;20048;-54
2022/09/11 12:31:50;;;;;;;9.57;7.50;;;25.50;56.00;;;;;;5080271;28;20035;-54
2022/09/11 12:34:36;;;;;;;9.90;7.60;;;25.50;56.80;;;;;;5086533;28;20427;-51
2022/09/11 12:37:13;;;;;;;6.60;5.82;;;25.40;57.40;;;;;;5072103;28;20036;-55
2022/09/11 12:39:49;;;;;;;7.07;6.38;;;25.50;55.80;;;;;;5069335;28;20052;-55
2022/09/11 12:42:22;;;;;;;7.53;6.40;;;25.50;56.20;;;;;;5089719;28;20060;-55
2022/09/11 12:44:49;;;;;;;6.40;5.25;;;25.40;55.50;;;;;;5074168;28;20069;-53
2022/09/11 12:47:28;;;;;;;5.80;5.10;;;25.40;55.60;;;;;;5096876;28;20496;-52
2022/09/11 12:50:15;;;;;;;4.72;4.28;;;25.40;55.20;;;;;;5087569;28;20044;-51
2022/09/11 12:52:44;;;;;;;5.80;5.22;;;25.40;55.80;;;;;;5064028;28;20066;-53
2022/09/11 12:55:29;;;;;;;5.15;4.65;;;25.40;55.00;;;;;;5100830;28;20131;-54
2022/09/11 12:58:01;;;;;;;5.07;4.63;;;25.40;54.60;;;;;;5097855;28;20043;-53
2022/09/11 13:00:35;;;;;;;6.00;4.45;;;25.40;54.80;;;;;;5099456;28;20055;-54
2022/09/11 13:03:04;;;;;;;5.15;4.55;;;25.40;54.80;;;;;;5095594;28;20043;-53
2022/09/11 13:05:36;;;;;;;4.53;4.10;;;25.50;55.60;;;;;;5093034;28;20040;-54
2022/09/11 13:08:14;;;;;;;;;;;25.60;55.20;;;;;;5093542;28;20036;-51